Time;durP1;ratioP1;P1;durP2;ratioP2;P2;SDS_P1;SDS_P2;PMS_P1;PMS_P2;Temp;Humidity;BMP_temperature;BMP_pressure;BME280_temperature;BME280_humidity;BME280_pressure;Samples;Min_cycle;Max_cycle;Signal;HPM_P1;HPM_P2
2022/10/16 00:01:17;;;;;;;4.10;3.10;;;13.70;99.90;;;;;;4898540;29;20472;-78
2022/10/16 00:03:48;;;;;;;5.77;3.53;;;13.70;99.90;;;;;;4897731;29;20464;-78
2022/10/16 00:06:18;;;;;;;6.30;3.70;;;13.70;99.90;;;;;;4898181;29;20465;-78
2022/10/16 00:08:47;;;;;;;4.43;3.30;;;13.60;99.90;;;;;;4897020;29;20449;-78
2022/10/16 00:11:18;;;;;;;7.03;3.60;;;13.60;99.90;;;;;;4896924;29;20824;-77
2022/10/16 00:13:48;;;;;;;4.63;3.33;;;13.60;99.90;;;;;;4898438;29;20437;-78
2022/10/16 00:16:17;;;;;;;6.00;3.67;;;13.60;99.90;;;;;;4898602;29;20513;-78
2022/10/16 00:18:47;;;;;;;5.07;3.70;;;13.60;99.90;;;;;;4898311;29;20496;-77
2022/10/16 00:21:17;;;;;;;7.37;3.50;;;13.60;99.90;;;;;;4898257;29;20502;-78
2022/10/16 00:23:46;;;;;;;7.77;3.30;;;13.50;99.90;;;;;;4898361;29;20441;-78
2022/10/16 00:26:17;;;;;;;5.03;3.20;;;13.50;99.90;;;;;;4896975;29;20477;-77
2022/10/16 00:28:47;;;;;;;7.00;3.73;;;13.50;99.90;;;;;;4898329;29;20493;-78
2022/10/16 00:31:17;;;;;;;5.70;3.73;;;13.40;99.90;;;;;;4898039;29;20433;-78
2022/10/16 00:33:45;;;;;;;4.30;3.10;;;13.50;99.90;;;;;;4896731;29;20962;-78
2022/10/16 00:36:16;;;;;;;6.77;3.80;;;13.40;99.90;;;;;;4897967;29;20465;-78
2022/10/16 00:38:45;;;;;;;5.00;3.00;;;13.40;99.90;;;;;;4898307;29;20456;-78
2022/10/16 00:41:16;;;;;;;4.77;3.57;;;13.40;99.90;;;;;;4898714;29;20571;-77
2022/10/16 00:43:46;;;;;;;6.67;3.27;;;13.40;99.90;;;;;;4897488;29;20805;-77
2022/10/16 00:46:18;;;;;;;5.40;3.87;;;13.40;99.90;;;;;;4898352;29;20464;-77
2022/10/16 00:48:51;;;;;;;5.63;3.30;;;13.40;99.90;;;;;;4907791;29;20429;-77
2022/10/16 00:51:25;;;;;;;4.50;3.40;;;13.30;99.90;;;;;;4914528;29;20456;-77
2022/10/16 00:53:53;;;;;;;5.20;3.47;;;13.30;99.90;;;;;;4916078;29;20508;-78
2022/10/16 00:56:22;;;;;;;5.10;3.27;;;13.30;99.90;;;;;;4914843;29;20513;-78
2022/10/16 00:58:50;;;;;;;5.20;3.60;;;13.30;99.90;;;;;;4915056;29;20528;-78
2022/10/16 01:01:18;;;;;;;5.07;3.47;;;13.20;99.90;;;;;;4915325;29;20473;-77
2022/10/16 01:03:46;;;;;;;7.17;3.60;;;13.20;99.90;;;;;;4915597;29;20437;-78
2022/10/16 01:06:25;;;;;;;4.40;2.80;;;13.20;99.90;;;;;;4910467;29;20477;-77
2022/10/16 01:09:05;;;;;;;4.70;3.17;;;13.20;99.90;;;;;;4901019;29;20444;-77
2022/10/16 01:11:38;;;;;;;6.27;3.70;;;13.20;99.90;;;;;;4899922;29;20449;-77
2022/10/16 01:14:15;;;;;;;3.83;3.20;;;13.10;99.90;;;;;;4901355;29;20542;-78
2022/10/16 01:16:50;;;;;;;6.03;3.90;;;13.10;99.90;;;;;;4900192;29;20477;-78
2022/10/16 01:19:27;;;;;;;7.87;4.13;;;13.10;99.90;;;;;;4901203;29;20429;-78
2022/10/16 01:21:59;;;;;;;4.80;3.57;;;13.10;99.90;;;;;;4899516;29;20477;-77
2022/10/16 01:24:33;;;;;;;4.70;3.20;;;13.00;99.90;;;;;;4899576;29;20453;-78
2022/10/16 01:27:10;;;;;;;4.43;3.00;;;13.10;99.90;;;;;;4900660;29;20531;-77
2022/10/16 01:29:46;;;;;;;4.83;3.47;;;13.00;99.90;;;;;;4900901;29;20440;-77
2022/10/16 01:32:19;;;;;;;5.40;2.93;;;13.00;99.90;;;;;;4899877;29;20811;-78
2022/10/16 01:34:51;;;;;;;4.30;3.60;;;13.00;99.90;;;;;;4901012;29;20434;-77
2022/10/16 01:37:28;;;;;;;5.37;3.73;;;13.00;99.90;;;;;;4899424;29;20995;-78
2022/10/16 01:40:01;;;;;;;6.03;3.80;;;13.00;99.90;;;;;;4899499;29;20453;-77
2022/10/16 01:42:36;;;;;;;6.53;3.87;;;12.90;99.90;;;;;;4900480;29;20466;-78
2022/10/16 01:45:07;;;;;;;4.10;3.37;;;12.90;99.90;;;;;;4899211;29;21035;-78
2022/10/16 01:47:37;;;;;;;4.70;3.70;;;12.90;99.90;;;;;;4900679;29;20540;-78
2022/10/16 01:50:07;;;;;;;4.03;3.27;;;12.90;99.90;;;;;;4899039;29;20464;-77
2022/10/16 01:52:39;;;;;;;7.03;3.60;;;12.90;99.90;;;;;;4899050;29;20453;-78
2022/10/16 01:55:10;;;;;;;7.97;4.13;;;12.80;99.90;;;;;;4898986;29;20453;-78
2022/10/16 01:57:46;;;;;;;5.73;3.80;;;12.80;99.90;;;;;;4900697;29;20429;-77
2022/10/16 02:00:15;;;;;;;5.13;3.90;;;12.80;99.90;;;;;;4899599;29;20915;-77
2022/10/16 02:02:46;;;;;;;5.67;3.83;;;12.80;99.90;;;;;;4898777;29;20474;-77
2022/10/16 02:05:20;;;;;;;5.30;3.40;;;12.80;99.90;;;;;;4900436;29;20505;-77
2022/10/16 02:07:49;;;;;;;4.83;3.80;;;12.80;99.90;;;;;;4899086;29;20939;-77
2022/10/16 02:10:18;;;;;;;5.37;3.47;;;12.70;99.90;;;;;;4900049;29;20441;-77
2022/10/16 02:12:51;;;;;;;5.47;3.70;;;12.70;99.90;;;;;;4898741;29;20450;-77
2022/10/16 02:15:19;;;;;;;5.50;3.10;;;12.70;99.90;;;;;;4898676;29;20449;-77
2022/10/16 02:17:47;;;;;;;8.80;4.20;;;12.70;99.90;;;;;;4898657;29;20549;-77
2022/10/16 02:20:16;;;;;;;5.60;3.40;;;12.70;99.90;;;;;;4898564;29;20476;-77
2022/10/16 02:22:49;;;;;;;5.20;3.50;;;12.70;99.90;;;;;;4898564;29;20469;-77
2022/10/16 02:25:22;;;;;;;4.77;3.50;;;12.70;99.90;;;;;;4898258;29;20468;-77
2022/10/16 02:27:56;;;;;;;6.33;3.50;;;12.70;99.90;;;;;;4898950;29;20456;-78
2022/10/16 02:30:28;;;;;;;5.83;3.73;;;12.70;99.90;;;;;;4898439;29;20445;-78
2022/10/16 02:32:58;;;;;;;6.97;3.90;;;12.70;99.90;;;;;;4898368;29;20448;-78
2022/10/16 02:35:28;;;;;;;5.10;3.50;;;12.70;99.90;;;;;;4899383;29;20524;-77
2022/10/16 02:37:57;;;;;;;5.63;3.30;;;12.60;99.90;;;;;;4898248;29;20461;-77
2022/10/16 02:40:26;;;;;;;4.40;3.00;;;12.60;99.90;;;;;;4898140;29;20468;-77
2022/10/16 02:42:56;;;;;;;7.47;3.47;;;12.60;99.90;;;;;;4898037;29;20878;-77
2022/10/16 02:45:25;;;;;;;6.13;3.50;;;12.60;99.90;;;;;;4898725;29;21102;-77
2022/10/16 02:47:53;;;;;;;4.37;3.50;;;12.60;99.90;;;;;;4898066;29;20468;-77
2022/10/16 02:50:22;;;;;;;7.17;3.47;;;12.60;99.90;;;;;;4899138;29;20464;-77
2022/10/16 02:52:50;;;;;;;6.47;3.87;;;12.60;99.90;;;;;;4899388;29;20468;-78
2022/10/16 02:55:18;;;;;;;5.80;3.53;;;12.50;99.90;;;;;;4899301;29;20456;-78
2022/10/16 02:57:46;;;;;;;5.80;3.30;;;12.50;99.90;;;;;;4897872;29;20509;-78
2022/10/16 03:00:18;;;;;;;5.50;3.30;;;12.50;99.90;;;;;;4899313;29;20453;-78
2022/10/16 03:02:46;;;;;;;6.10;3.60;;;12.50;99.90;;;;;;4897728;29;20465;-78
2022/10/16 03:05:15;;;;;;;5.10;3.80;;;12.50;99.90;;;;;;4898918;29;20528;-78
2022/10/16 03:07:43;;;;;;;5.33;4.30;;;12.50;99.90;;;;;;4898838;29;20448;-78
2022/10/16 03:10:11;;;;;;;4.93;3.70;;;12.50;99.90;;;;;;4897059;29;20837;-78
2022/10/16 03:12:39;;;;;;;6.37;3.90;;;12.50;99.90;;;;;;4898657;29;20446;-77
2022/10/16 03:15:08;;;;;;;3.93;3.13;;;12.40;99.90;;;;;;4898334;29;20509;-77
2022/10/16 03:17:38;;;;;;;8.67;4.00;;;12.40;99.90;;;;;;4898087;29;20545;-77
2022/10/16 03:20:07;;;;;;;6.30;4.20;;;12.40;99.90;;;;;;4897553;29;20500;-78
2022/10/16 03:22:35;;;;;;;6.63;4.20;;;12.40;99.90;;;;;;4897448;29;20473;-77
2022/10/16 03:25:03;;;;;;;6.37;4.30;;;12.40;99.90;;;;;;4897272;29;20456;-77
2022/10/16 03:27:31;;;;;;;9.17;4.37;;;12.40;99.90;;;;;;4897485;29;20548;-77
2022/10/16 03:29:59;;;;;;;7.23;4.53;;;12.40;99.90;;;;;;4897413;29;20443;-77
2022/10/16 03:32:28;;;;;;;7.97;4.57;;;12.40;99.90;;;;;;4897390;29;20456;-77
2022/10/16 03:34:58;;;;;;;8.77;5.60;;;12.40;99.90;;;;;;4898702;29;20460;-77
2022/10/16 03:37:26;;;;;;;6.87;4.87;;;12.40;99.90;;;;;;4898479;29;20988;-77
2022/10/16 03:39:54;;;;;;;8.20;5.17;;;12.40;99.90;;;;;;4898682;29;20812;-78
2022/10/16 03:42:24;;;;;;;6.37;4.83;;;12.40;99.90;;;;;;4898282;29;20499;-77
2022/10/16 03:44:52;;;;;;;6.23;5.10;;;12.40;99.90;;;;;;4898343;29;21047;-77
2022/10/16 03:47:22;;;;;;;8.90;6.40;;;12.40;99.90;;;;;;4898371;29;20465;-77
2022/10/16 03:49:51;;;;;;;8.80;5.60;;;12.40;99.90;;;;;;4898714;29;20789;-78
2022/10/16 03:52:21;;;;;;;9.80;6.53;;;12.40;99.90;;;;;;4898547;29;20453;-77
2022/10/16 03:54:49;;;;;;;6.77;6.10;;;12.40;99.90;;;;;;4897136;29;20492;-77
2022/10/16 03:57:17;;;;;;;8.60;7.33;;;12.40;99.90;;;;;;4899261;29;20879;-78
2022/10/16 03:59:45;;;;;;;8.90;8.00;;;12.40;99.90;;;;;;4898611;29;20447;-77
2022/10/16 04:02:14;;;;;;;8.73;7.10;;;12.30;99.90;;;;;;4897077;29;20472;-78
2022/10/16 04:04:42;;;;;;;14.20;8.07;;;12.30;99.90;;;;;;4896994;29;20480;-78
2022/10/16 04:07:10;;;;;;;9.27;7.50;;;12.30;99.90;;;;;;4896998;29;20906;-78
2022/10/16 04:09:39;;;;;;;12.30;7.33;;;12.30;99.90;;;;;;4897082;29;20489;-78
2022/10/16 04:12:07;;;;;;;7.93;7.20;;;12.30;99.90;;;;;;4897099;29;20461;-78
2022/10/16 04:14:36;;;;;;;8.30;7.43;;;12.30;99.90;;;;;;4897018;29;20449;-77
2022/10/16 04:17:04;;;;;;;9.63;8.70;;;12.30;99.90;;;;;;4898090;29;20507;-77
2022/10/16 04:19:32;;;;;;;10.93;8.17;;;12.30;99.90;;;;;;4897692;29;20517;-77
2022/10/16 04:22:00;;;;;;;10.73;9.73;;;12.30;99.90;;;;;;4897937;29;20453;-77
2022/10/16 04:24:28;;;;;;;11.90;10.70;;;12.30;99.90;;;;;;4901940;29;20477;-77
2022/10/16 04:26:57;;;;;;;12.50;11.23;;;12.30;99.90;;;;;;4900676;29;20485;-77
2022/10/16 04:29:25;;;;;;;13.53;12.13;;;12.30;99.90;;;;;;4900625;29;20829;-77
2022/10/16 04:31:53;;;;;;;13.13;11.70;;;12.40;99.90;;;;;;4900718;29;20455;-77
2022/10/16 04:34:22;;;;;;;14.50;13.00;;;12.40;99.90;;;;;;4902067;29;20448;-77
2022/10/16 04:36:50;;;;;;;13.60;12.10;;;12.40;99.90;;;;;;4900362;29;20814;-77
2022/10/16 04:39:18;;;;;;;16.97;14.53;;;12.40;99.90;;;;;;4901899;29;20472;-77
2022/10/16 04:41:46;;;;;;;16.00;13.47;;;12.50;99.90;;;;;;4900297;29;20497;-77
2022/10/16 04:44:15;;;;;;;14.80;13.00;;;12.50;99.90;;;;;;4900218;29;20564;-77
2022/10/16 04:46:44;;;;;;;15.17;13.77;;;12.50;99.90;;;;;;4901070;29;20484;-77
2022/10/16 04:49:12;;;;;;;15.30;13.80;;;12.50;99.90;;;;;;4901468;29;20501;-77
2022/10/16 04:51:40;;;;;;;16.20;14.60;;;12.50;99.90;;;;;;4900196;29;20452;-77
2022/10/16 04:54:09;;;;;;;12.47;11.17;;;12.50;99.90;;;;;;4900131;29;20456;-77
2022/10/16 04:56:43;;;;;;;17.80;16.13;;;12.50;99.90;;;;;;4899986;29;20505;-77
2022/10/16 04:59:11;;;;;;;19.30;16.00;;;12.50;99.90;;;;;;4900146;29;20487;-77
2022/10/16 05:01:40;;;;;;;17.27;15.57;;;12.50;99.90;;;;;;4899980;29;21030;-77
2022/10/16 05:04:08;;;;;;;20.53;16.77;;;12.50;99.90;;;;;;4899884;29;20476;-77
2022/10/16 05:06:38;;;;;;;19.30;16.87;;;12.50;99.90;;;;;;4901354;29;20465;-77
2022/10/16 05:09:06;;;;;;;18.87;16.87;;;12.60;99.90;;;;;;4899887;29;20457;-77
2022/10/16 05:11:35;;;;;;;18.43;16.50;;;12.60;99.90;;;;;;4900083;29;20797;-77
2022/10/16 05:14:03;;;;;;;18.67;16.83;;;12.60;99.90;;;;;;4900945;29;20445;-77
2022/10/16 05:16:31;;;;;;;17.80;15.90;;;12.60;99.90;;;;;;4899661;29;20567;-77
2022/10/16 05:19:01;;;;;;;19.23;15.90;;;12.60;99.90;;;;;;4899537;29;20465;-77
2022/10/16 05:21:49;;;;;;;19.77;17.77;;;12.60;99.90;;;;;;4901220;29;20461;-77
2022/10/16 05:24:17;;;;;;;19.20;17.20;;;12.60;99.90;;;;;;4900764;29;20983;-77
2022/10/16 05:26:45;;;;;;;20.53;17.80;;;12.60;99.90;;;;;;4899338;29;20484;-77
2022/10/16 05:29:13;;;;;;;20.37;18.27;;;12.70;99.90;;;;;;4901017;29;20457;-77
2022/10/16 05:31:41;;;;;;;19.43;17.43;;;12.70;99.90;;;;;;4900760;29;20452;-77
2022/10/16 05:34:11;;;;;;;26.63;19.33;;;12.70;99.90;;;;;;4899810;29;20908;-77
2022/10/16 05:36:39;;;;;;;19.13;17.30;;;12.70;99.90;;;;;;4900873;29;20461;-77
2022/10/16 05:39:07;;;;;;;18.47;16.80;;;12.70;99.90;;;;;;4899357;29;20463;-77
2022/10/16 05:41:35;;;;;;;21.37;19.27;;;12.80;99.90;;;;;;4900792;29;20445;-77
2022/10/16 05:44:06;;;;;;;20.57;18.47;;;12.80;99.90;;;;;;4899222;29;20500;-77
2022/10/16 05:46:34;;;;;;;19.90;17.83;;;12.80;99.90;;;;;;4903647;29;20457;-77
2022/10/16 05:49:02;;;;;;;19.37;17.47;;;12.80;99.90;;;;;;4918123;29;20461;-77
2022/10/16 05:51:32;;;;;;;17.77;15.97;;;12.80;99.90;;;;;;4917500;29;20485;-77
2022/10/16 05:54:00;;;;;;;20.83;18.80;;;12.80;99.90;;;;;;4917300;29;20442;-77
2022/10/16 05:56:28;;;;;;;18.83;16.97;;;12.80;99.90;;;;;;4917439;29;20465;-77
2022/10/16 05:58:57;;;;;;;18.53;16.73;;;12.80;99.90;;;;;;4924443;29;20450;-77
2022/10/16 06:01:25;;;;;;;18.90;16.93;;;12.80;99.90;;;;;;4911743;29;20466;-76
2022/10/16 06:03:53;;;;;;;18.93;17.20;;;12.80;99.90;;;;;;4900165;29;20855;-77
2022/10/16 06:06:23;;;;;;;18.43;16.53;;;12.90;99.90;;;;;;4908918;29;20469;-77
2022/10/16 06:08:54;;;;;;;18.53;16.70;;;12.90;99.90;;;;;;4904177;29;20457;-76
2022/10/16 06:11:25;;;;;;;18.27;16.40;;;12.90;99.90;;;;;;4900254;29;20438;-77
2022/10/16 06:13:56;;;;;;;18.50;16.77;;;12.90;99.90;;;;;;4900724;29;20477;-77
2022/10/16 06:16:25;;;;;;;17.17;15.07;;;12.90;99.90;;;;;;4900052;29;20846;-77
2022/10/16 06:18:54;;;;;;;16.97;15.27;;;12.90;99.90;;;;;;4898695;29;20873;-77
2022/10/16 06:21:25;;;;;;;17.13;15.37;;;12.90;99.90;;;;;;4898511;29;20482;-77
2022/10/16 06:23:55;;;;;;;17.63;15.90;;;12.90;99.90;;;;;;4898425;29;20469;-77
2022/10/16 06:26:25;;;;;;;17.30;15.50;;;13.00;99.90;;;;;;4899557;29;20488;-77
2022/10/16 06:28:55;;;;;;;17.43;15.50;;;13.00;99.90;;;;;;4899684;29;20497;-77
2022/10/16 06:31:27;;;;;;;16.50;14.87;;;13.00;99.90;;;;;;4900205;29;20432;-77
2022/10/16 06:33:56;;;;;;;17.17;15.47;;;13.00;99.90;;;;;;4898290;29;20869;-77
2022/10/16 06:36:25;;;;;;;15.90;14.33;;;13.00;99.90;;;;;;4899563;29;21001;-77
2022/10/16 06:38:54;;;;;;;16.30;14.70;;;13.00;99.90;;;;;;4898232;29;20461;-77
2022/10/16 06:41:24;;;;;;;16.20;14.60;;;13.00;99.90;;;;;;4899747;29;20834;-77
2022/10/16 06:43:52;;;;;;;15.87;14.27;;;13.00;99.90;;;;;;4898040;29;20457;-77
2022/10/16 06:46:23;;;;;;;16.90;15.37;;;13.10;99.90;;;;;;4898003;29;20469;-76
2022/10/16 06:48:51;;;;;;;15.90;14.27;;;13.10;99.90;;;;;;4899657;29;20432;-77
2022/10/16 06:51:20;;;;;;;15.57;13.97;;;13.10;99.90;;;;;;4899580;29;20465;-76
2022/10/16 06:53:50;;;;;;;20.20;18.27;;;13.10;99.90;;;;;;4897998;29;20461;-76
2022/10/16 06:56:35;;;;;;;16.57;14.97;;;13.10;99.90;;;;;;4899376;29;20497;-76
2022/10/16 06:59:04;;;;;;;16.50;14.80;;;13.10;99.90;;;;;;4899224;29;20454;-77
2022/10/16 07:01:34;;;;;;;16.43;14.87;;;13.10;99.90;;;;;;4898014;29;20497;-77
2022/10/16 07:04:02;;;;;;;15.87;14.37;;;13.10;99.90;;;;;;4898279;29;20457;-76
2022/10/16 07:06:33;;;;;;;14.70;13.30;;;13.10;99.90;;;;;;4899480;29;20472;-76
2022/10/16 07:09:04;;;;;;;15.30;13.67;;;13.20;99.90;;;;;;4897723;29;20450;-76
2022/10/16 07:11:35;;;;;;;16.90;15.30;;;13.20;99.90;;;;;;4897702;29;20548;-76
2022/10/16 07:14:03;;;;;;;15.30;13.80;;;13.20;99.90;;;;;;4898984;29;20454;-77
2022/10/16 07:16:33;;;;;;;16.43;14.73;;;13.20;99.90;;;;;;4898715;29;20469;-76
2022/10/16 07:19:03;;;;;;;13.53;12.07;;;13.20;99.90;;;;;;4897744;29;20457;-76
2022/10/16 07:21:35;;;;;;;14.40;13.10;;;13.30;99.90;;;;;;4898990;29;20445;-77
2022/10/16 07:24:06;;;;;;;14.17;12.67;;;13.30;99.90;;;;;;4897726;29;20500;-77
2022/10/16 07:26:38;;;;;;;14.47;12.80;;;13.30;99.90;;;;;;4897269;29;20489;-76
2022/10/16 07:29:08;;;;;;;13.33;12.03;;;13.30;99.90;;;;;;4898606;29;20445;-76
2022/10/16 07:31:38;;;;;;;13.50;12.20;;;13.40;99.90;;;;;;4898603;29;20433;-76
2022/10/16 07:34:06;;;;;;;12.80;11.57;;;13.40;99.90;;;;;;4897346;29;20457;-76
2022/10/16 07:36:34;;;;;;;13.53;12.23;;;13.40;99.90;;;;;;4897365;29;20473;-77
2022/10/16 07:39:02;;;;;;;13.80;12.33;;;13.40;99.90;;;;;;4898687;29;20453;-77
2022/10/16 07:41:32;;;;;;;12.50;11.23;;;13.50;99.90;;;;;;4898474;29;20951;-77
2022/10/16 07:44:02;;;;;;;12.20;11.00;;;13.50;99.90;;;;;;4897127;29;20821;-77
2022/10/16 07:46:30;;;;;;;12.40;11.20;;;13.50;99.90;;;;;;4896988;29;20480;-76
2022/10/16 07:48:58;;;;;;;17.50;11.40;;;13.50;99.90;;;;;;4897151;29;20829;-76
2022/10/16 07:51:27;;;;;;;13.63;10.80;;;13.50;99.90;;;;;;4897500;29;20449;-76
2022/10/16 07:53:55;;;;;;;12.20;11.07;;;13.50;99.90;;;;;;4898557;29;20974;-77
2022/10/16 07:56:24;;;;;;;12.37;11.00;;;13.60;99.90;;;;;;4896891;29;20469;-77
2022/10/16 07:58:52;;;;;;;11.50;10.37;;;13.60;99.90;;;;;;4897027;29;20853;-77
2022/10/16 08:01:21;;;;;;;13.50;11.33;;;13.70;99.90;;;;;;4898855;29;20460;-77
2022/10/16 08:03:51;;;;;;;11.67;10.20;;;13.70;99.90;;;;;;4898571;29;20449;-77
2022/10/16 08:06:22;;;;;;;11.47;10.27;;;13.80;99.90;;;;;;4897311;29;20491;-76
2022/10/16 08:08:55;;;;;;;10.60;9.60;;;13.80;99.90;;;;;;4898913;29;20789;-76
2022/10/16 08:11:24;;;;;;;10.47;8.43;;;13.90;99.90;;;;;;4897171;29;20457;-76
2022/10/16 08:13:52;;;;;;;9.93;9.03;;;13.90;99.90;;;;;;4898322;29;20441;-76
2022/10/16 08:16:22;;;;;;;9.53;8.13;;;14.00;99.90;;;;;;4898326;29;20457;-76
2022/10/16 08:18:51;;;;;;;8.67;7.80;;;14.10;99.90;;;;;;4898399;29;20846;-76
2022/10/16 08:21:22;;;;;;;7.47;6.67;;;14.20;99.90;;;;;;4898561;29;20473;-76
2022/10/16 08:23:51;;;;;;;9.30;8.37;;;14.20;99.90;;;;;;4898189;29;20513;-76
2022/10/16 08:26:26;;;;;;;13.90;7.30;;;14.30;99.90;;;;;;4896892;29;20689;-76
2022/10/16 08:28:55;;;;;;;7.10;6.40;;;14.30;99.90;;;;;;4897099;29;20464;-76
2022/10/16 08:31:25;;;;;;;8.03;6.13;;;14.40;99.90;;;;;;4896775;29;20527;-76
2022/10/16 08:33:54;;;;;;;9.63;6.03;;;14.50;99.90;;;;;;4896791;29;20483;-76
2022/10/16 08:36:22;;;;;;;6.83;5.37;;;14.50;99.90;;;;;;4897999;29;20518;-76
2022/10/16 08:38:53;;;;;;;6.60;5.00;;;14.60;99.90;;;;;;4896800;29;21069;-76
2022/10/16 08:41:57;;;;;;;7.13;5.20;;;14.60;99.90;;;;;;4896916;29;20445;-76
2022/10/16 08:44:50;;;;;;;7.60;5.20;;;14.70;99.90;;;;;;4889537;29;20453;-76
2022/10/16 08:47:23;;;;;;;6.20;4.47;;;14.80;99.90;;;;;;4897020;29;20476;-76
2022/10/16 08:49:57;;;;;;;5.77;4.60;;;14.80;99.90;;;;;;4898397;29;20884;-76
2022/10/16 08:52:30;;;;;;;4.93;3.90;;;14.90;99.90;;;;;;4896696;29;20438;-76
2022/10/16 08:54:58;;;;;;;7.73;4.23;;;15.00;99.90;;;;;;4898382;29;20469;-76
2022/10/16 08:57:27;;;;;;;5.00;3.80;;;15.00;99.90;;;;;;4897788;29;20468;-76
2022/10/16 09:00:00;;;;;;;6.80;4.50;;;15.10;99.90;;;;;;4896547;29;20835;-75
2022/10/16 09:02:33;;;;;;;5.43;3.40;;;15.10;99.90;;;;;;4897782;29;20426;-75
2022/10/16 09:05:19;;;;;;;5.80;3.53;;;15.20;99.90;;;;;;4896535;29;20541;-76
2022/10/16 09:07:56;;;;;;;5.80;3.50;;;15.20;99.90;;;;;;4895742;29;20457;-76
2022/10/16 09:10:36;;;;;;;5.77;3.80;;;15.30;99.90;;;;;;4900466;29;20421;-75
2022/10/16 09:13:18;;;;;;;5.30;3.30;;;15.30;99.90;;;;;;4901070;29;20528;-76
2022/10/16 09:15:54;;;;;;;5.50;2.93;;;15.40;99.90;;;;;;4899758;29;20472;-75
2022/10/16 09:18:29;;;;;;;3.83;2.90;;;15.50;99.90;;;;;;4901333;29;20425;-75
2022/10/16 09:21:06;;;;;;;6.10;2.53;;;15.60;99.90;;;;;;4901205;29;20783;-75
2022/10/16 09:23:37;;;;;;;5.50;2.70;;;15.70;99.90;;;;;;4899644;29;20449;-75
2022/10/16 09:26:08;;;;;;;6.47;2.07;;;15.70;99.90;;;;;;4900834;29;20986;-76
2022/10/16 09:28:37;;;;;;;6.20;2.77;;;15.70;99.90;;;;;;4900820;29;20974;-76
2022/10/16 09:31:05;;;;;;;4.87;2.80;;;15.70;99.90;;;;;;4900853;29;20552;-75
2022/10/16 09:33:40;;;;;;;4.63;2.87;;;15.70;99.90;;;;;;4900302;29;20795;-76
2022/10/16 09:36:09;;;;;;;4.87;2.70;;;15.80;99.90;;;;;;4899307;29;20480;-76
2022/10/16 09:38:37;;;;;;;6.20;2.70;;;15.80;99.90;;;;;;4899330;29;20453;-75
2022/10/16 09:41:18;;;;;;;9.50;3.17;;;15.80;99.90;;;;;;4899368;29;20505;-76
2022/10/16 09:43:54;;;;;;;5.43;2.50;;;15.90;99.90;;;;;;4899292;29;20446;-76
2022/10/16 09:46:28;;;;;;;4.00;2.40;;;15.90;99.90;;;;;;4900662;29;20974;-76
2022/10/16 09:48:59;;;;;;;5.27;2.27;;;15.90;99.90;;;;;;4900687;29;20430;-75
2022/10/16 09:51:30;;;;;;;5.17;2.27;;;16.00;99.90;;;;;;4900670;29;20504;-76
2022/10/16 09:54:00;;;;;;;4.40;2.43;;;16.10;99.90;;;;;;4899509;29;20452;-76
2022/10/16 09:56:30;;;;;;;4.67;2.10;;;16.10;99.90;;;;;;4900253;29;20467;-75
2022/10/16 09:59:00;;;;;;;6.43;3.00;;;16.20;99.90;;;;;;4898997;29;20953;-76
2022/10/16 10:01:36;;;;;;;7.60;2.97;;;16.20;99.90;;;;;;4900083;29;20448;-76
2022/10/16 10:04:06;;;;;;;4.87;2.40;;;16.30;99.90;;;;;;4899095;29;20842;-76
2022/10/16 10:06:37;;;;;;;3.90;2.40;;;16.30;99.90;;;;;;4898653;29;20998;-76
2022/10/16 10:09:16;;;;;;;5.67;2.43;;;16.30;99.90;;;;;;4900380;29;20458;-76
2022/10/16 10:11:50;;;;;;;5.83;2.50;;;16.40;99.90;;;;;;4900007;29;20520;-75
2022/10/16 10:14:22;;;;;;;7.17;2.30;;;16.40;99.90;;;;;;4900556;29;20862;-76
2022/10/16 10:16:52;;;;;;;4.00;2.00;;;16.50;99.90;;;;;;4900192;29;20554;-75
2022/10/16 10:19:23;;;;;;;4.23;2.37;;;16.50;99.90;;;;;;4898320;29;20453;-76
2022/10/16 10:21:55;;;;;;;3.53;1.90;;;16.60;99.90;;;;;;4898603;29;20830;-76
2022/10/16 10:24:23;;;;;;;6.03;1.80;;;16.70;99.90;;;;;;4899692;29;20997;-76
2022/10/16 10:26:59;;;;;;;5.00;1.80;;;16.70;99.90;;;;;;4898188;29;20980;-76
2022/10/16 10:29:38;;;;;;;4.13;1.60;;;16.80;99.90;;;;;;4898450;29;20424;-76
2022/10/16 10:32:19;;;;;;;6.10;1.90;;;16.80;99.90;;;;;;4899912;29;20425;-76
2022/10/16 10:35:07;;;;;;;4.80;2.10;;;16.90;99.90;;;;;;4899590;29;20931;-76
2022/10/16 10:38:03;;;;;;;4.77;1.63;;;16.90;99.90;;;;;;4899811;29;20426;-76
2022/10/16 10:40:40;;;;;;;4.17;1.83;;;17.00;99.90;;;;;;4899561;29;20427;-76
2022/10/16 10:43:21;;;;;;;5.37;1.50;;;17.00;99.90;;;;;;4900043;29;20915;-77
2022/10/16 10:45:56;;;;;;;4.83;1.60;;;17.10;99.90;;;;;;4908685;29;20591;-75
2022/10/16 10:48:55;;;;;;;4.13;1.57;;;17.10;99.90;;;;;;4914836;29;20476;-76
2022/10/16 10:51:32;;;;;;;5.90;1.97;;;17.20;99.90;;;;;;4914514;29;20454;-76
2022/10/16 10:54:10;;;;;;;4.50;1.80;;;17.20;99.90;;;;;;4914085;29;20946;-77
2022/10/16 10:56:48;;;;;;;4.37;1.70;;;17.30;99.90;;;;;;4907613;29;20495;-77
2022/10/16 10:59:45;;;;;;;4.47;2.30;;;17.30;99.90;;;;;;4914838;29;20498;-76
2022/10/16 11:02:20;;;;;;;3.43;1.80;;;17.30;99.90;;;;;;4914556;29;20441;-77
2022/10/16 11:05:13;;;;;;;4.87;1.60;;;17.30;99.90;;;;;;4909093;29;20424;-76
2022/10/16 11:07:48;;;;;;;3.37;1.77;;;17.40;99.90;;;;;;4910008;29;20475;-77
2022/10/16 11:10:20;;;;;;;7.43;2.00;;;17.40;99.90;;;;;;4906847;29;20399;-76
2022/10/16 11:12:52;;;;;;;4.30;1.60;;;17.40;99.90;;;;;;4898974;29;20505;-76
2022/10/16 11:15:25;;;;;;;4.93;2.40;;;17.50;99.90;;;;;;4899038;29;20429;-76
2022/10/16 11:17:56;;;;;;;4.50;1.70;;;17.50;99.90;;;;;;4897821;29;20778;-76
2022/10/16 11:20:28;;;;;;;4.70;1.90;;;17.50;99.90;;;;;;4898750;29;20416;-76
2022/10/16 11:23:06;;;;;;;5.07;2.10;;;17.50;99.90;;;;;;4898989;29;20436;-76
2022/10/16 11:25:34;;;;;;;5.43;2.00;;;17.50;99.90;;;;;;4897962;29;20488;-76
2022/10/16 11:28:09;;;;;;;3.10;1.60;;;17.50;99.90;;;;;;4898963;29;20477;-76
2022/10/16 11:30:45;;;;;;;4.63;1.80;;;17.50;99.90;;;;;;4897534;29;20496;-76
2022/10/16 11:33:31;;;;;;;5.83;2.00;;;17.60;99.90;;;;;;4898070;29;20416;-76
2022/10/16 11:36:07;;;;;;;4.63;1.67;;;17.60;99.90;;;;;;4897400;29;20476;-76
2022/10/16 11:38:44;;;;;;;6.40;1.80;;;17.60;99.90;;;;;;4899121;29;20429;-76
2022/10/16 11:41:21;;;;;;;5.20;2.50;;;17.70;99.90;;;;;;4897297;29;20973;-76
2022/10/16 11:43:59;;;;;;;3.80;1.37;;;17.70;99.90;;;;;;4898469;29;20407;-76
2022/10/16 11:46:30;;;;;;;5.67;2.47;;;17.70;99.90;;;;;;4898295;29;20435;-76
2022/10/16 11:49:04;;;;;;;4.63;1.60;;;17.80;99.90;;;;;;4899006;29;20437;-76
2022/10/16 11:51:37;;;;;;;6.57;2.40;;;17.80;99.90;;;;;;4898744;29;20400;-76
2022/10/16 11:54:15;;;;;;;5.60;1.70;;;17.90;99.90;;;;;;4898645;29;20400;-76
2022/10/16 11:56:47;;;;;;;6.27;1.83;;;17.90;99.90;;;;;;4898263;29;20435;-76
2022/10/16 11:59:24;;;;;;;4.60;1.60;;;17.90;99.90;;;;;;4897182;29;20420;-76
2022/10/16 12:02:00;;;;;;;4.23;1.73;;;17.90;99.90;;;;;;4897073;29;20943;-76
2022/10/16 12:04:35;;;;;;;3.97;1.40;;;18.00;99.90;;;;;;4897147;29;20435;-76
2022/10/16 12:07:08;;;;;;;5.37;1.80;;;17.90;99.90;;;;;;4896906;29;20539;-76
2022/10/16 12:09:40;;;;;;;7.57;1.77;;;17.90;99.90;;;;;;4898678;29;20441;-76
2022/10/16 12:12:26;;;;;;;5.13;1.47;;;17.90;99.90;;;;;;4898948;29;20444;-76
2022/10/16 12:15:03;;;;;;;5.37;1.50;;;17.90;99.90;;;;;;4898411;29;20445;-77
2022/10/16 12:17:49;;;;;;;6.70;1.97;;;17.90;99.90;;;;;;4897031;29;20465;-77
2022/10/16 12:20:30;;;;;;;5.77;2.43;;;17.90;99.90;;;;;;4897218;29;20499;-77
2022/10/16 12:23:03;;;;;;;6.47;1.73;;;18.00;99.90;;;;;;4896955;29;20445;-77
2022/10/16 12:25:35;;;;;;;7.97;2.60;;;18.00;99.90;;;;;;4897892;29;20516;-77
2022/10/16 12:28:06;;;;;;;3.90;1.47;;;18.00;99.90;;;;;;4896826;29;20444;-77
2022/10/16 12:30:36;;;;;;;4.10;1.47;;;18.10;99.90;;;;;;4898135;29;20431;-76
2022/10/16 12:33:06;;;;;;;4.60;1.60;;;18.20;99.90;;;;;;4899256;29;20412;-76
2022/10/16 12:35:44;;;;;;;9.13;2.03;;;18.20;99.90;;;;;;4898838;29;20519;-77
2022/10/16 12:38:19;;;;;;;5.80;2.90;;;18.20;99.90;;;;;;4898248;29;20434;-77
2022/10/16 12:40:57;;;;;;;8.10;2.07;;;18.20;99.90;;;;;;4897148;29;20424;-77
2022/10/16 12:43:38;;;;;;;4.77;1.80;;;18.20;99.90;;;;;;4898387;29;20416;-77
2022/10/16 12:46:22;;;;;;;4.67;1.87;;;18.30;99.90;;;;;;4901850;29;20468;-77
2022/10/16 12:48:50;;;;;;;8.17;2.70;;;18.40;99.90;;;;;;4901716;29;20472;-77
2022/10/16 12:51:36;;;;;;;7.03;3.57;;;18.40;99.90;;;;;;4901566;29;20516;-76
2022/10/16 12:54:12;;;;;;;9.57;2.33;;;18.50;99.90;;;;;;4901813;29;20408;-76
2022/10/16 12:56:53;;;;;;;4.60;1.90;;;18.60;99.90;;;;;;4901791;29;20469;-76
2022/10/16 12:59:32;;;;;;;6.87;1.87;;;18.60;99.90;;;;;;4900461;29;20445;-76
2022/10/16 13:02:35;;;;;;;5.90;2.10;;;18.60;99.90;;;;;;4902114;29;20860;-77
2022/10/16 13:05:19;;;;;;;6.60;1.50;;;18.60;99.90;;;;;;4900215;29;20500;-76